Rocky Ridge, Ohio
Current Conditions -  °F | °C
As of 8:53 PM on Monday 24 Nov 2014 (Local Time) from KTDZ Reporting Station
Overcast Overcast  
Wind Chill: 24°   Ceiling: 2700
Heat Index: 37°   Visibility: 10mi
Dew Point: 27°   Wind: 31mph
Humidity: 67%   Direction: 240°WSW
Pressure: 29.71"   Gusts: 43mph
Location:  41.53°N, 83.21°W
Report Text: KTDZ 250153Z AUTO 24027G37KT 10SM BKN027 BKN038 OVC045 03/M03 A2971 RMK AO2 PK WND 23045/0123 SLP061 T00281028 TSNO $
Loading
Personal Weather Stations






























Interactive Weather Map New forecast layout! Learn more

10-Day Weather Forecast

Advertisements
Track Severe Weather on mobile